createdAt,value
2022-11-09T00:01:38.424Z,1.75
2022-11-09T00:06:39.887Z,1.95
2022-11-09T00:11:41.325Z,1.60
2022-11-09T00:16:43.078Z,1.70
2022-11-09T00:21:44.549Z,2.15
2022-11-09T00:26:46.043Z,1.70
2022-11-09T00:31:47.639Z,2.10
2022-11-09T00:36:50.396Z,1.98
2022-11-09T00:41:51.805Z,1.50
2022-11-09T00:46:53.294Z,1.52
2022-11-09T00:51:54.938Z,1.70
2022-11-09T00:56:56.514Z,1.63
2022-11-09T01:01:58.057Z,2.33
2022-11-09T01:06:59.807Z,2.20
2022-11-09T01:12:01.272Z,2.30
2022-11-09T01:17:03.634Z,2.80
2022-11-09T01:22:05.201Z,2.58
2022-11-09T01:27:06.824Z,2.03
2022-11-09T01:32:08.232Z,2.05
2022-11-09T01:37:10.050Z,2.00
2022-11-09T01:42:11.596Z,1.88
2022-11-09T01:47:24.881Z,1.75
2022-11-09T01:52:36.164Z,1.70
2022-11-09T02:03:04.283Z,1.50
2022-11-09T02:08:07.140Z,1.88
2022-11-09T02:13:13.548Z,2.05
2022-11-09T02:18:15.139Z,1.90
2022-11-09T02:23:17.443Z,1.70
2022-11-09T02:28:19.771Z,1.48
2022-11-09T02:33:22.091Z,1.70
2022-11-09T02:38:23.898Z,1.70
2022-11-09T02:43:25.486Z,1.95
2022-11-09T02:48:26.936Z,1.10
2022-11-09T02:53:28.665Z,1.30
2022-11-09T02:58:30.565Z,1.40
2022-11-09T03:03:32.492Z,1.25
2022-11-09T03:08:34.084Z,1.83
2022-11-09T03:13:36.363Z,1.38
2022-11-09T03:18:41.714Z,1.20
2022-11-09T03:23:43.900Z,1.50
2022-11-09T03:28:45.373Z,1.38
2022-11-09T03:33:47.293Z,1.52
2022-11-09T03:38:49.612Z,1.38
2022-11-09T03:43:51.150Z,1.52
2022-11-09T03:48:53.136Z,1.35
2022-11-09T03:53:54.649Z,1.95
2022-11-09T03:58:56.315Z,1.27
2022-11-09T04:04:02.492Z,1.63
2022-11-09T04:09:04.754Z,1.55
2022-11-09T04:14:06.200Z,1.77
2022-11-09T04:19:07.784Z,1.30
2022-11-09T04:24:09.436Z,1.70
2022-11-09T04:29:10.889Z,1.65
2022-11-09T04:34:12.306Z,2.03
2022-11-09T04:39:13.975Z,1.70
2022-11-09T04:44:15.536Z,1.88
2022-11-09T04:49:16.997Z,1.52
2022-11-09T04:54:18.454Z,2.05
2022-11-09T04:59:21.319Z,2.03
2022-11-09T05:04:22.788Z,2.38
2022-11-09T05:09:24.201Z,2.80
2022-11-09T05:14:25.775Z,2.75
2022-11-09T05:19:27.243Z,2.40
2022-11-09T05:24:28.684Z,2.20
2022-11-09T05:29:30.130Z,2.55
2022-11-09T05:34:31.568Z,2.20
2022-11-09T05:39:33.163Z,2.38
2022-11-09T05:44:34.614Z,2.70
2022-11-09T05:49:36.070Z,2.28
2022-11-09T05:54:37.582Z,2.28
2022-11-09T05:59:38.994Z,2.35
2022-11-09T06:04:40.426Z,1.80
2022-11-09T06:09:41.848Z,2.35
2022-11-09T06:14:43.515Z,2.30
2022-11-09T06:19:44.959Z,2.38
2022-11-09T06:24:46.654Z,2.40
2022-11-09T06:29:48.184Z,1.90
2022-11-09T06:34:49.787Z,2.10
2022-11-09T06:39:51.732Z,2.78
2022-11-09T06:44:53.191Z,2.28
2022-11-09T06:49:54.679Z,2.40
2022-11-09T06:54:56.119Z,2.47
2022-11-09T07:00:00.096Z,2.40
2022-11-09T07:05:02.660Z,1.98
2022-11-09T07:10:04.700Z,2.67
2022-11-09T07:15:06.773Z,2.08
2022-11-09T07:20:09.916Z,1.98
2022-11-09T07:25:12.043Z,2.10
2022-11-09T07:30:13.945Z,2.63
2022-11-09T07:35:15.574Z,1.92
2022-11-09T07:40:17.063Z,2.67
2022-11-09T07:45:18.548Z,2.63
2022-11-09T07:50:20.064Z,1.80
2022-11-09T07:55:22.345Z,2.42
2022-11-09T08:00:24.392Z,2.25
2022-11-09T08:05:26.025Z,2.20
2022-11-09T08:10:29.061Z,1.92
2022-11-09T08:15:31.192Z,1.40
2022-11-09T08:20:33.867Z,2.70
2022-11-09T08:25:36.160Z,2.08
2022-11-09T08:30:37.594Z,2.05
2022-11-09T08:35:39.095Z,2.42
2022-11-09T08:40:40.563Z,2.03
2022-11-09T08:45:42.000Z,1.95
2022-11-09T08:50:43.423Z,2.60
2022-11-09T08:55:49.349Z,2.30
2022-11-09T09:00:51.587Z,2.28
2022-11-09T09:05:53.299Z,2.60
2022-11-09T09:10:54.923Z,2.25
2022-11-09T09:15:56.417Z,2.00
2022-11-09T09:20:57.906Z,2.30
2022-11-09T09:25:59.419Z,2.00
2022-11-09T09:31:01.678Z,1.83
2022-11-09T09:36:03.837Z,2.58
2022-11-09T09:41:06.742Z,2.13
2022-11-09T09:46:35.326Z,1.92
2022-11-09T09:51:39.487Z,1.95
2022-11-09T09:56:45.267Z,1.85
2022-11-09T10:01:48.377Z,1.80
2022-11-09T10:06:59.138Z,1.85
2022-11-09T10:12:14.417Z,1.48
2022-11-09T10:17:30.953Z,1.63
2022-11-09T10:23:04.669Z,2.28
2022-11-09T10:28:14.142Z,2.13
2022-11-09T10:33:20.735Z,1.67
2022-11-09T10:38:27.665Z,1.48
2022-11-09T10:43:47.759Z,1.45
2022-11-09T10:49:20.211Z,1.77
2022-11-09T10:54:40.167Z,1.77
2022-11-09T11:00:01.016Z,1.98
2022-11-09T11:05:27.718Z,1.70
2022-11-09T11:10:47.987Z,2.05
2022-11-09T11:16:23.646Z,1.67
2022-11-09T11:21:43.799Z,1.40
2022-11-09T11:27:36.215Z,1.80
2022-11-09T11:32:57.293Z,1.70
2022-11-09T11:38:39.280Z,1.77
2022-11-09T11:44:16.289Z,1.80
2022-11-09T11:49:58.103Z,1.83
2022-11-09T11:55:38.922Z,1.37
2022-11-09T12:01:11.007Z,1.88
2022-11-09T12:06:46.232Z,1.20
2022-11-09T12:12:49.139Z,1.27
2022-11-09T12:18:19.490Z,1.65
2022-11-09T12:23:54.412Z,1.65
2022-11-09T12:29:21.793Z,1.83
2022-11-09T12:35:07.980Z,1.10
2022-11-09T12:40:48.176Z,1.23
2022-11-09T12:46:11.037Z,1.08
2022-11-09T12:51:33.446Z,1.20
2022-11-09T12:56:58.266Z,1.10
2022-11-09T13:02:33.633Z,1.10
2022-11-09T13:07:54.881Z,1.60
2022-11-09T13:13:15.378Z,1.15
2022-11-09T13:18:36.238Z,1.00
2022-11-09T13:24:08.084Z,1.35
2022-11-09T13:29:51.046Z,1.00
2022-11-09T13:35:45.875Z,1.08
2022-11-09T13:41:31.741Z,0.83
2022-11-09T13:46:53.712Z,1.08
2022-11-09T13:52:42.396Z,1.02
2022-11-09T13:58:11.698Z,1.05
2022-11-09T14:03:31.537Z,0.98
2022-11-09T14:08:52.298Z,0.90
2022-11-09T14:14:40.070Z,1.30
2022-11-09T14:20:20.826Z,1.08
2022-11-09T14:25:40.690Z,0.95
2022-11-09T14:31:01.979Z,0.85
2022-11-09T14:36:22.105Z,1.00
2022-11-09T14:41:44.161Z,1.02
2022-11-09T14:47:06.485Z,1.40
2022-11-09T14:52:29.903Z,1.20
2022-11-09T14:57:52.415Z,1.08
2022-11-09T15:03:27.667Z,0.98
2022-11-09T15:08:55.291Z,1.23
2022-11-09T15:14:25.265Z,1.40
2022-11-09T15:20:00.315Z,1.10
2022-11-09T15:25:32.590Z,1.17
2022-11-09T15:30:52.491Z,1.13
2022-11-09T15:36:33.938Z,0.98
2022-11-09T15:41:54.128Z,1.23
2022-11-09T15:47:35.875Z,1.02
2022-11-09T15:52:56.206Z,1.88
2022-11-09T15:58:18.744Z,1.25
2022-11-09T16:03:39.467Z,1.40
2022-11-09T16:08:59.395Z,1.70
2022-11-09T16:14:21.960Z,1.65
2022-11-09T16:19:43.154Z,1.67
2022-11-09T16:25:03.294Z,1.70
2022-11-09T16:30:23.167Z,1.42
2022-11-09T16:35:43.378Z,1.75
2022-11-09T16:41:04.328Z,1.65
2022-11-09T16:46:28.482Z,2.20
2022-11-09T16:51:48.777Z,1.45
2022-11-09T16:57:08.772Z,1.67
2022-11-09T17:02:29.086Z,1.77
2022-11-09T17:07:49.162Z,2.00
2022-11-09T17:13:10.624Z,1.73
2022-11-09T17:18:30.778Z,1.80
2022-11-09T17:23:51.577Z,1.27
2022-11-09T17:29:12.648Z,1.67
2022-11-09T17:34:33.155Z,1.55
2022-11-09T17:39:53.022Z,1.48
2022-11-09T17:45:13.438Z,1.70
2022-11-09T17:50:33.593Z,1.65
2022-11-09T17:55:54.288Z,1.80
2022-11-09T18:01:16.789Z,1.30
2022-11-09T18:06:37.814Z,2.00
2022-11-09T18:11:58.223Z,1.77
2022-11-09T18:17:19.416Z,2.20
2022-11-09T18:22:39.281Z,2.22
2022-11-09T18:27:59.593Z,2.47
2022-11-09T18:33:19.716Z,1.95
2022-11-09T18:38:39.820Z,2.10
2022-11-09T18:43:59.725Z,1.95
2022-11-09T18:49:20.027Z,2.10
2022-11-09T18:54:40.041Z,2.50
2022-11-09T19:00:00.365Z,2.00
2022-11-09T19:05:20.434Z,2.13
2022-11-09T19:10:40.741Z,2.00
2022-11-09T19:16:02.454Z,2.28
2022-11-09T19:21:25.843Z,2.42
2022-11-09T19:26:46.823Z,2.20
2022-11-09T19:32:07.076Z,2.47
2022-11-09T19:37:27.127Z,2.42
2022-11-09T19:42:47.441Z,2.67
2022-11-09T19:48:07.586Z,2.70
2022-11-09T19:53:30.218Z,2.30
2022-11-09T19:58:52.454Z,2.45
2022-11-09T20:04:12.812Z,2.63
2022-11-09T20:09:32.934Z,2.63
2022-11-09T20:14:52.917Z,3.00
2022-11-09T20:20:15.193Z,3.53
2022-11-09T20:25:36.391Z,4.45
2022-11-09T20:30:56.740Z,2.45
2022-11-09T20:36:18.689Z,3.45
2022-11-09T20:41:39.004Z,3.10
2022-11-09T20:46:59.438Z,2.88
2022-11-09T20:52:20.181Z,2.47
2022-11-09T20:57:40.166Z,2.42
2022-11-09T21:03:00.126Z,2.80
2022-11-09T21:08:20.707Z,4.50
2022-11-09T21:13:43.784Z,2.77
2022-11-09T21:19:03.938Z,3.03
2022-11-09T21:24:42.339Z,2.95
2022-11-09T21:30:02.643Z,3.03
2022-11-09T21:35:22.882Z,3.65
2022-11-09T21:40:43.133Z,3.70
2022-11-09T21:46:03.507Z,2.70
2022-11-09T21:51:23.614Z,3.10
2022-11-09T21:56:43.526Z,2.65
2022-11-09T22:02:04.146Z,2.90
2022-11-09T22:07:24.119Z,2.60
2022-11-09T22:13:02.939Z,2.70
2022-11-09T22:18:45.876Z,3.30
2022-11-09T22:24:09.598Z,2.75
2022-11-09T22:34:50.378Z,3.33
2022-11-09T22:40:10.596Z,2.95
2022-11-09T22:45:33.492Z,2.42
2022-11-09T22:50:53.412Z,3.58
2022-11-09T22:56:13.492Z,2.85
2022-11-09T23:01:33.718Z,2.72
2022-11-09T23:06:53.981Z,2.58
2022-11-09T23:12:14.114Z,2.80
2022-11-09T23:17:54.342Z,3.75
2022-11-09T23:23:14.658Z,3.30
2022-11-09T23:28:35.737Z,2.78
2022-11-09T23:33:57.698Z,3.28
2022-11-09T23:39:17.912Z,3.05
2022-11-09T23:44:38.155Z,3.30
2022-11-09T23:49:58.244Z,3.08
2022-11-09T23:55:18.363Z,2.70
